Flight Track Log - Related Links

Times and Time Zones

All times are in EDT time to prevent confusion due to time zone crossing. See the AWE471 flight status page for this flight to view local times or setup timezone preferences in your user account.


Time Position Orientation Groundspeed Altitude Reporting Facility
EDT Latitude Longitude Course Direction KTS MPH feet Rate Location/Type
Tue 03:23:42 PM 33.4333 -111.9833 20° North 172 198 2,100  Level Phoenix TRACON
Tue 03:24:49 PM 33.4333 -111.9000 90° East 222 255 3,600 2,033 Climbing Phoenix TRACON
Tue 03:25:43 PM 33.4500 -111.8333 73° East 241 277 6,200 2,421 Climbing Phoenix TRACON
Tue 03:26:00 PM 33.7688 -111.8549 15° North  Level FlightAware Approximate
Tue 03:26:43 PM 33.5000 -111.7667 48° Northeast 286 329 8,200  Level Phoenix TRACON
Tue 03:27:00 PM 33.8813 -111.8072 20° North  Level FlightAware Approximate
Tue 03:28:00 PM 33.9935 -111.7581 20° North  Level FlightAware Approximate
Tue 03:28:06 PM 33.5656 -111.6514 56° Northeast 305 351 11,000  Level Albuquerque Center
Tue 03:29:00 PM 34.1057 -111.7092 20° North  Level FlightAware Approximate
Tue 03:29:08 PM 33.6553 -111.6006 25° Northeast 368 423 12,900  Level Albuquerque Center
Tue 03:30:09 PM 33.7664 -111.6222 351° North 383 441 15,200 2,195 Climbing Albuquerque Center
Tue 03:31:11 PM 33.8711 -111.6608 343° North 390 449 17,400 2,081 Climbing Albuquerque Center
Tue 03:32:13 PM 33.9789 -111.7000 343° North 401 461 19,500 2,293 Climbing Albuquerque Center
Tue 03:33:14 PM 34.0953 -111.7089 356° North 412 474 22,100 2,049 Climbing Albuquerque Center
Tue 03:34:16 PM 34.1900 -111.6403 31° Northeast 400 460 23,700 1,500 Climbing Albuquerque Center
Tue 03:35:18 PM 34.2903 -111.5731 29° Northeast 406 467 25,200 1,561 Climbing Albuquerque Center
Tue 03:36:19 PM 34.3894 -111.5011 31° Northeast 414 476 26,900 1,659 Climbing Albuquerque Center
Tue 03:37:21 PM 34.4867 -111.4319 30° Northeast 411 473 28,600 1,645 Climbing Albuquerque Center
Tue 03:38:23 PM 34.5828 -111.3631 31° Northeast 408 470 30,300 1,366 Climbing Albuquerque Center
Tue 03:39:24 PM 34.6769 -111.2944 31° Northeast 402 463 31,400 878 Climbing Albuquerque Center
Tue 03:40:26 PM 34.7936 -111.2103 31° Northeast 403 464 32,100 581 Climbing Albuquerque Center
Tue 03:41:28 PM 34.8950 -111.1369 31° Northeast 419 482 32,600 581 Climbing Albuquerque Center
Tue 03:42:30 PM 35.0100 -111.0528 31° Northeast 431 496 33,300 683 Climbing Albuquerque Center
Tue 03:43:31 PM 35.1136 -110.9794 30° Northeast 440 506 34,000 585 Climbing Albuquerque Center
Tue 03:44:33 PM 35.2167 -110.9044 31° Northeast 446 513 34,500 581 Climbing Albuquerque Center
Tue 03:45:35 PM 35.3386 -110.8142 31° Northeast 451 519 35,200 581 Climbing Albuquerque Center
Tue 03:46:37 PM 35.4417 -110.7369 31° Northeast 454 522 35,700 634 Climbing Albuquerque Center
Tue 03:47:38 PM 35.5650 -110.6453 31° Northeast 457 526 36,500 634 Climbing Albuquerque Center
Tue 03:48:40 PM 35.6711 -110.5669 31° Northeast 461 531 37,000 242 Climbing Albuquerque Center
Tue 03:49:42 PM 35.7950 -110.4744 31° Northeast 462 532 37,000  Level Albuquerque Center
Tue 03:50:44 PM 35.9050 -110.3947 30° Northeast 472 543 37,000  Level Albuquerque Center
Tue 03:51:45 PM 36.0122 -110.3136 31° Northeast 472 543 37,000  Level Albuquerque Center
Tue 03:52:47 PM 36.1367 -110.2192 31° Northeast 472 543 37,000  Level Albuquerque Center
Tue 03:54:07 PM 36.2628 -110.1250 31° Northeast 471 542 37,000  Level Denver Center
Tue 03:55:10 PM 36.4064 -110.0172 31° Northeast 471 542 37,000  Level Denver Center
Tue 03:56:12 PM 36.5136 -109.9364 31° Northeast 471 542 37,000  Level Denver Center
Tue 03:57:13 PM 36.6211 -109.8539 32° Northeast 471 542 37,000  Level Denver Center
Tue 03:58:15 PM 36.7472 -109.7569 32° Northeast 473 544 37,000  Level Denver Center
Tue 03:59:17 PM 36.8550 -109.6742 32° Northeast 473 544 37,000  Level Denver Center
Tue 04:00:20 PM 36.9819 -109.5772 31° Northeast 475 547 37,000  Level Denver Center
Tue 04:01:22 PM 37.0900 -109.4947 31° Northeast 475 547 37,000  Level Denver Center
Tue 04:02:24 PM 37.2139 -109.3975 32° Northeast 472 543 37,000  Level Denver Center
Tue 04:03:25 PM 37.3203 -109.3136 32° Northeast 471 542 37,000  Level Denver Center
Tue 04:04:27 PM 37.4431 -109.2186 32° Northeast 465 535 37,000  Level Denver Center
Tue 04:05:29 PM 37.5478 -109.1381 31° Northeast 463 533 37,000  Level Denver Center
Tue 04:06:31 PM 37.6525 -109.0556 32° Northeast 463 533 37,000  Level Denver Center
Tue 04:07:33 PM 37.7717 -108.9558 33° Northeast 460 529 37,000  Level Denver Center
Tue 04:08:35 PM 37.8592 -108.8503 44° Northeast 455 524 37,000  Level Denver Center
Tue 04:09:36 PM 37.9442 -108.7053 53° Northeast 453 521 37,000  Level Denver Center
Tue 04:10:38 PM 38.0183 -108.5808 53° Northeast 457 526 37,000  Level Denver Center
Tue 04:11:40 PM 38.0967 -108.4497 53° Northeast 459 528 37,000  Level Denver Center
Tue 04:12:41 PM 38.1817 -108.3061 53° Northeast 457 526 37,000  Level Denver Center
Tue 04:13:43 PM 38.2547 -108.1828 53° Northeast 457 526 37,000  Level Denver Center
Tue 04:14:45 PM 38.3397 -108.0397 53° Northeast 456 525 37,000  Level Denver Center
Tue 04:15:47 PM 38.4136 -107.9169 52° Northeast 456 525 37,000  Level Denver Center
Tue 04:16:48 PM 38.4867 -107.7917 53° Northeast 457 526 37,000  Level Denver Center
Tue 04:17:50 PM 38.5708 -107.6461 53° Northeast 458 527 37,000  Level Denver Center
Tue 04:18:52 PM 38.6453 -107.5186 53° Northeast 462 532 37,000  Level Denver Center
Tue 04:19:54 PM 38.7303 -107.3708 54° Northeast 463 533 37,000  Level Denver Center
Tue 04:20:55 PM 38.8033 -107.2442 53° Northeast 463 533 37,000  Level Denver Center
Tue 04:21:57 PM 38.8894 -107.0944 54° Northeast 465 535 37,000  Level Denver Center
Tue 04:22:59 PM 38.9628 -106.9667 54° Northeast 465 535 37,000  Level Denver Center
Tue 04:24:01 PM 39.0483 -106.8169 54° Northeast 465 535 37,000  Level Denver Center
Tue 04:25:03 PM 39.1200 -106.6892 54° Northeast 465 535 37,000  Level Denver Center
Tue 04:26:04 PM 39.2042 -106.5403 54° Northeast 461 531 37,000  Level Denver Center
Tue 04:27:06 PM 39.2753 -106.4133 54° Northeast 460 529 37,000  Level Denver Center
Tue 04:28:08 PM 39.3472 -106.2847 54° Northeast 460 529 37,000  Level Denver Center
Tue 04:29:10 PM 39.4206 -106.1522 54° Northeast 460 529 37,000  Level Denver Center
Tue 04:30:12 PM 39.5122 -105.9892 54° Northeast 463 533 37,000  Level Denver Center
Tue 04:31:13 PM 39.5869 -105.8539 54° Northeast 463 533 37,000  Level Denver Center
Tue 04:32:15 PM 39.6594 -105.7189 55° Northeast 461 531 37,000  Level Denver Center
Tue 04:33:17 PM 39.7342 -105.5828 54° Northeast 461 531 37,000  Level Denver Center
Tue 04:34:19 PM 39.8086 -105.4461 55° Northeast 461 531 37,000  Level Denver Center
Tue 04:35:21 PM 39.8844 -105.3069 55° Northeast 464 534 37,000  Level Denver Center
Tue 04:36:22 PM 39.9592 -105.1678 55° Northeast 465 535 37,000  Level Denver Center
Tue 04:37:24 PM 40.0342 -105.0269 55° Northeast 467 537 37,000  Level Denver Center
Tue 04:38:26 PM 40.1236 -104.8614 55° Northeast 467 537 37,000  Level Denver Center
Tue 04:39:40 PM 40.1958 -104.7242 55° Northeast 461 531 37,000  Level Denver Center
Tue 04:40:42 PM 40.2847 -104.5583 55° Northeast 461 531 37,000  Level Denver Center
Tue 04:41:44 PM 40.3564 -104.4175 56° Northeast 462 532 37,000  Level Denver Center
Tue 04:42:58 PM 40.4164 -104.2669 62° Northeast 463 533 37,000  Level Denver Center
Tue 04:44:00 PM 40.4900 -104.0858 62° Northeast 466 536 37,000  Level Denver Center
Tue 04:45:02 PM 40.5503 -103.9356 62° Northeast 466 536 37,000  Level Denver Center
Tue 04:46:04 PM 40.6222 -103.7553 62° Northeast 466 536 37,000  Level Denver Center
Tue 04:47:06 PM 40.6817 -103.6031 63° Northeast 467 537 37,000  Level Denver Center
Tue 04:48:08 PM 40.7422 -103.4519 62° Northeast 467 537 37,000  Level Denver Center
Tue 04:49:09 PM 40.8022 -103.2978 63° Northeast 469 540 37,000  Level Denver Center
Tue 04:50:11 PM 40.8619 -103.1447 63° Northeast 470 541 37,000  Level Denver Center
Tue 04:51:13 PM 40.9300 -102.9714 62° Northeast 473 544 37,000  Level Denver Center
Tue 04:52:15 PM 40.9856 -102.8219 64° Northeast 473 544 37,000  Level Denver Center
Tue 04:53:17 PM 41.0547 -102.6497 62° Northeast 473 544 37,000  Level Denver Center
Tue 04:54:19 PM 41.1100 -102.5006 64° Northeast 473 544 37,000  Level Denver Center
Tue 04:55:21 PM 41.1767 -102.3258 63° Northeast 473 544 37,000  Level Denver Center
Tue 04:56:23 PM 41.2336 -102.1775 63° Northeast 473 544 37,000  Level Denver Center
Tue 04:57:25 PM 41.2981 -102.0011 64° Northeast 473 544 37,000  Level Denver Center
Tue 04:58:27 PM 41.3542 -101.8525 63° Northeast 472 543 37,000  Level Denver Center
Tue 04:59:28 PM 41.4103 -101.7047 63° Northeast 469 540 37,000  Level Denver Center
Tue 05:01:32 PM 41.5278 -101.3836 64° Northeast 466 536 37,000  Level Denver Center
Tue 05:02:46 PM 41.5914 -101.2081 64° Northeast 467 537 37,000  Level Denver Center
Tue 05:03:49 PM 41.6558 -101.0325 64° Northeast 467 537 37,000  Level Denver Center
Tue 05:04:51 PM 41.7194 -100.8564 64° Northeast 467 537 37,000  Level Denver Center
Tue 05:05:53 PM 41.7731 -100.7061 64° Northeast 467 537 37,000  Level Denver Center
Tue 05:06:55 PM 41.8353 -100.5319 64° Northeast 466 536 37,000  Level Denver Center
Tue 05:07:56 PM 41.8878 -100.3819 65° Northeast 464 534 37,000  Level Denver Center
Tue 05:08:47 PM 41.9347 -100.2494 64° Northeast 463 533 37,000  Level Minneapolis Center
Tue 05:09:48 PM 41.9917 -100.0922 64° Northeast 464 534 37,000  Level Minneapolis Center
Tue 05:10:50 PM 42.0450 -99.9353 65° Northeast 463 533 37,000  Level Minneapolis Center
Tue 05:11:52 PM 42.0986 -99.7783 65° Northeast 463 533 37,000  Level Minneapolis Center
Tue 05:12:54 PM 42.1539 -99.6225 64° Northeast 463 533 37,000  Level Minneapolis Center
Tue 05:13:56 PM 42.2172 -99.4353 65° Northeast 458 527 37,000  Level Minneapolis Center
Tue 05:14:57 PM 42.2697 -99.2806 65° Northeast 458 527 37,000  Level Minneapolis Center
Tue 05:15:59 PM 42.3231 -99.1253 65° Northeast 457 526 37,000  Level Minneapolis Center
Tue 05:17:01 PM 42.3753 -98.9700 65° Northeast 456 525 37,000  Level Minneapolis Center
Tue 05:18:03 PM 42.4286 -98.8128 65° Northeast 456 525 37,000  Level Minneapolis Center
Tue 05:19:05 PM 42.4869 -98.6625 62° Northeast 451 519 37,000  Level Minneapolis Center
Tue 05:20:06 PM 42.5603 -98.5331 52° Northeast 437 503 37,000  Level Minneapolis Center
Tue 05:21:08 PM 42.6350 -98.4067 51° Northeast 432 497 37,000  Level Minneapolis Center
Tue 05:22:10 PM 42.7106 -98.2808 51° Northeast 431 496 37,000  Level Minneapolis Center
Tue 05:23:12 PM 42.7950 -98.1342 52° Northeast 429 494 37,000  Level Minneapolis Center
Tue 05:24:14 PM 42.8675 -98.0081 52° Northeast 427 491 37,000  Level Minneapolis Center
Tue 05:25:15 PM 42.9394 -97.8828 52° Northeast 426 490 37,000  Level Minneapolis Center
Tue 05:26:17 PM 43.0125 -97.7572 51° Northeast 426 490 37,000  Level Minneapolis Center
Tue 05:27:19 PM 43.0861 -97.6322 51° Northeast 425 489 37,000  Level Minneapolis Center
Tue 05:28:21 PM 43.1722 -97.4828 52° Northeast 423 487 37,000  Level Minneapolis Center
Tue 05:29:23 PM 43.2439 -97.3556 52° Northeast 422 486 37,000  Level Minneapolis Center
Tue 05:30:25 PM 43.3153 -97.2317 52° Northeast 420 483 37,000  Level Minneapolis Center
Tue 05:31:26 PM 43.3864 -97.1039 53° Northeast 421 484 37,000  Level Minneapolis Center
Tue 05:32:28 PM 43.4581 -96.9792 52° Northeast 420 483 37,000  Level Minneapolis Center
Tue 05:33:30 PM 43.5283 -96.8533 52° Northeast 420 483 37,000  Level Minneapolis Center
Tue 05:34:32 PM 43.6128 -96.7014 52° Northeast 419 482 37,000  Level Minneapolis Center
Tue 05:35:33 PM 43.6828 -96.5758 52° Northeast 419 482 37,000  Level Minneapolis Center
Tue 05:36:35 PM 43.7519 -96.4508 53° Northeast 417 480 37,000  Level Minneapolis Center
Tue 05:37:37 PM 43.8208 -96.3267 52° Northeast 413 475 37,000  Level Minneapolis Center
Tue 05:38:39 PM 43.8894 -96.2014 53° Northeast 413 475 37,000  Level Minneapolis Center
Tue 05:39:40 PM 43.9583 -96.0783 52° Northeast 413 475 37,000  Level Minneapolis Center
Tue 05:40:42 PM 44.0400 -95.9278 53° Northeast 413 475 37,000 -290 Level Minneapolis Center
Tue 05:41:44 PM 44.1058 -95.7969 55° Northeast 415 478 36,400 -1,210 Descending Minneapolis Center
Tue 05:42:46 PM 44.1631 -95.6469 62° Northeast 437 503 34,500 -2,488 Descending Minneapolis Center
Tue 05:43:47 PM 44.2217 -95.4939 62° Northeast 445 512 31,300 -2,780 Descending Minneapolis Center
Tue 05:44:49 PM 44.2817 -95.3372 62° Northeast 456 525 28,800 -2,565 Descending Minneapolis Center
Tue 05:45:51 PM 44.3511 -95.1544 62° Northeast 452 520 26,000 -2,488 Descending Minneapolis Center
Tue 05:46:52 PM 44.4075 -95.0067 62° Northeast 438 504 23,700 -2,195 Descending Minneapolis Center
Tue 05:47:54 PM 44.4628 -94.8631 62° Northeast 428 493 21,500 -2,129 Descending Minneapolis Center
Tue 05:48:56 PM 44.5147 -94.7228 63° Northeast 414 476 19,300 -2,081 Descending Minneapolis Center
Tue 05:49:58 PM 44.5697 -94.5764 62° Northeast 397 457 17,200 -2,081 Descending Minneapolis Center
Tue 05:51:00 PM 44.6172 -94.4461 63° Northeast 381 438 15,000 -2,098 Descending Minneapolis Center
Tue 05:52:01 PM 44.6583 -94.3150 66° East 372 428 12,900 -1,854 Descending Minneapolis Center
Tue 05:53:03 PM 44.6875 -94.1814 73° East 359 413 11,200 -919 Descending Minneapolis Center
Tue 05:54:05 PM 44.7167 -94.0508 73° East 353 406 11,000 -97 Descending Minneapolis Center
Tue 05:55:07 PM 44.7458 -93.9200 73° East 353 406 11,000  Level Minneapolis Center
Tue 05:56:09 PM 44.7736 -93.7947 73° East 334 384 11,000 -49 Level Minneapolis Center
Tue 05:57:10 PM 44.8031 -93.6650 72° East 293 337 10,900 -829 Descending Minneapolis Center
Tue 05:58:12 PM 44.8269 -93.5556 73° East 292 336 9,300 -1,355 Descending Minneapolis Center
Tue 05:59:14 PM 44.8503 -93.4494 73° East 286 329 8,100 -629 Descending Minneapolis Center
Tue 06:00:16 PM 44.8567 -93.3419 85° East 291 335 8,000 -677 Descending Minneapolis Center
Tue 06:01:18 PM 44.7864 -93.3025 158° South 286 329 6,700 -1,500 Descending Minneapolis Center
Tue 06:02:20 PM 44.7067 -93.2764 167° South 258 297 4,900 -1,355 Descending Minneapolis Center
Tue 06:03:22 PM 44.6986 -93.2069 99° East 203 234 3,900 -919 Descending Minneapolis Center
Tue 06:04:24 PM 44.7450 -93.2050 North 176 203 3,000 -726 Descending Minneapolis Center
Tue 06:05:26 PM 44.7958 -93.2183 349° North 165 190 2,400 -634 Descending Minneapolis Center
Tue 06:06:27 PM 44.8303 -93.2275 349° North 133 153 1,700 -689 Descending Minneapolis Center

Login

Don't have an account? Register now (free) for customized features, flight alerts, and more!